Benson, United Kingdom
Current Conditions -  °F | °C
As of 6:50 PM on Monday 20 Oct 2014 (Local Time) from EGUB Reporting Station
Broken Clouds Broken Clouds  
Wind Chill: 13°   Ceiling: 2000
Heat Index: 13°   Visibility: 6mi
Dew Point: 11°   Wind: 7mph
Humidity: 88%   Direction: 190°S
Pressure: 29.94"   Gusts: NA
Location:  51.62°N, 1.11°W
Report Text: EGUB 201750Z 19006KT 9999 BKN020 BKN040 13/11 Q1014 WHT TEMPO FEW020 BLU
Loading
Personal Weather Stations






























Interactive Weather Map
Tropical Storm Tracking
New forecast layout! Learn more

10-Day Weather Forecast

Advertisements
Track Severe Weather on mobile